Time;durP1;ratioP1;P1;durP2;ratioP2;P2;SDS_P1;SDS_P2;PMS_P1;PMS_P2;Temp;Humidity;BMP_temperature;BMP_pressure;BME280_temperature;BME280_humidity;BME280_pressure;Samples;Min_cycle;Max_cycle;Signal;HPM_P1;HPM_P2
2022/10/06 00:00:52;;;;;;;0.20;0.20;;;;;;;15.82;100.00;100231.25;7391666;19;20015;-59
2022/10/06 00:03:22;;;;;;;0.30;0.30;;;;;;;16.09;100.00;100229.84;7392384;19;20007;-59
2022/10/06 00:05:50;;;;;;;0.20;0.20;;;;;;;15.56;100.00;100229.81;7392543;19;20029;-59
2022/10/06 00:08:17;;;;;;;0.68;0.13;;;;;;;15.81;100.00;100240.16;7395862;19;20018;-59
2022/10/06 00:10:43;;;;;;;0.10;0.10;;;;;;;16.20;100.00;100243.19;7392020;19;20014;-59
2022/10/06 00:13:09;;;;;;;0.10;0.10;;;;;;;15.77;100.00;100250.88;7394723;19;20440;-59
2022/10/06 00:15:36;;;;;;;0.10;0.10;;;;;;;15.80;100.00;100249.88;7391780;19;20480;-59
2022/10/06 00:18:02;;;;;;;0.10;0.10;;;;;;;15.49;100.00;100255.53;7394466;19;20091;-59
2022/10/06 00:20:28;;;;;;;0.38;0.28;;;;;;;15.68;100.00;100256.72;7391183;19;20014;-59
2022/10/06 00:22:55;;;;;;;0.10;0.10;;;;;;;15.62;100.00;100256.66;7391778;19;20101;-59
2022/10/06 00:25:24;;;;;;;0.10;0.10;;;;;;;15.52;100.00;100257.34;7395282;19;20513;-59
2022/10/06 00:27:51;;;;;;;0.28;0.28;;;;;;;15.66;100.00;100256.41;7393693;19;20010;-59
2022/10/06 00:30:24;;;;;;;0.10;0.10;;;;;;;15.76;100.00;100263.38;7391030;19;20011;-59
2022/10/06 00:32:52;;;;;;;1.20;0.70;;;;;;;15.74;100.00;100265.94;7389898;19;20031;-59
2022/10/06 00:35:20;;;;;;;0.20;0.20;;;;;;;15.87;100.00;100277.50;7391721;19;20010;-59
2022/10/06 00:37:47;;;;;;;1.20;0.57;;;;;;;15.82;100.00;100270.56;7394320;19;20087;-59
2022/10/06 00:40:13;;;;;;;0.10;0.10;;;;;;;15.34;100.00;100280.13;7390140;19;20018;-59
2022/10/06 00:43:03;;;;;;;0.10;0.10;;;;;;;14.96;100.00;100290.53;7392701;19;20035;-59
2022/10/06 00:45:45;;;;;;;0.40;0.40;;;;;;;15.47;100.00;100288.94;7389491;19;20018;-59
2022/10/06 00:48:25;;;;;;;0.10;0.10;;;;;;;15.65;100.00;100280.94;7395341;19;20018;-59
2022/10/06 00:50:54;;;;;;;7.03;0.50;;;;;;;15.31;100.00;100293.13;7388234;19;20021;-59
2022/10/06 00:53:21;;;;;;;0.13;0.13;;;;;;;15.14;100.00;100297.81;7388972;19;20014;-59
2022/10/06 00:55:48;;;;;;;0.10;0.10;;;;;;;14.33;100.00;100308.41;7393577;19;20038;-59
2022/10/06 00:58:15;;;;;;;0.25;0.20;;;;;;;14.99;100.00;100305.59;7390430;19;20624;-59
2022/10/06 01:00:43;;;;;;;1.17;0.43;;;;;;;15.00;100.00;100313.53;7389241;19;20017;-59
2022/10/06 01:03:16;;;;;;;0.20;0.20;;;;;;;15.00;100.00;100318.34;7390392;19;20017;-58
2022/10/06 01:05:46;;;;;;;0.75;0.65;;;;;;;15.42;100.00;100310.06;7387883;19;20067;-59
2022/10/06 01:08:13;;;;;;;0.53;0.40;;;;;;;15.23;100.00;100324.94;7390872;19;20117;-59
2022/10/06 01:10:42;;;;;;;0.10;0.10;;;;;;;14.82;100.00;100316.63;7388312;19;20015;-59
2022/10/06 01:13:10;;;;;;;1.20;1.10;;;;;;;14.42;100.00;100317.44;7392493;19;20007;-59
2022/10/06 01:15:45;;;;;;;1.15;0.43;;;;;;;15.31;100.00;100314.81;7387789;19;20042;-59
2022/10/06 01:18:15;;;;;;;0.10;0.10;;;;;;;15.32;100.00;100319.16;7390827;19;20484;-58
2022/10/06 01:20:50;;;;;;;0.10;0.10;;;;;;;15.33;100.00;100329.13;7389919;19;20014;-58
2022/10/06 01:23:17;;;;;;;0.30;0.30;;;;;;;15.47;100.00;100329.03;7388285;19;20078;-59
2022/10/06 01:25:45;;;;;;;0.50;0.50;;;;;;;15.80;100.00;100334.91;7391613;19;20021;-59
2022/10/06 01:28:13;;;;;;;0.10;0.10;;;;;;;15.40;100.00;100339.91;7391063;19;20594;-58
2022/10/06 01:30:52;;;;;;;0.25;0.25;;;;;;;15.74;100.00;100336.13;7388749;19;20003;-58
2022/10/06 01:33:21;;;;;;;0.13;0.13;;;;;;;15.68;100.00;100343.75;7387193;19;20431;-58
2022/10/06 01:35:50;;;;;;;0.10;0.10;;;;;;;15.27;100.00;100347.97;7387501;19;20007;-59
2022/10/06 01:38:17;;;;;;;0.17;0.17;;;;;;;15.16;100.00;100342.97;7390020;19;20498;-59
2022/10/06 01:40:46;;;;;;;0.70;0.65;;;;;;;15.20;100.00;100349.91;7387768;19;20023;-59
2022/10/06 01:43:12;;;;;;;0.20;0.20;;;;;;;15.07;100.00;100345.97;7389257;19;20010;-58
2022/10/06 01:45:38;;;;;;;0.10;0.10;;;;;;;14.89;100.00;100349.88;7388622;19;20010;-58
2022/10/06 01:48:05;;;;;;;0.10;0.10;;;;;;;14.54;100.00;100351.22;7390969;19;20070;-59
2022/10/06 01:50:31;;;;;;;1.00;0.90;;;;;;;14.72;100.00;100345.31;7387516;19;20038;-58
2022/10/06 01:52:58;;;;;;;0.45;0.40;;;;;;;15.17;100.00;100353.72;7389278;19;20478;-58
2022/10/06 01:55:24;;;;;;;1.27;1.17;;;;;;;15.74;100.00;100347.38;7388929;19;20507;-58
2022/10/06 01:57:51;;;;;;;2.33;1.20;;;;;;;15.15;100.00;100355.47;7388920;19;20011;-58
2022/10/06 02:00:17;;;;;;;0.10;0.10;;;;;;;14.61;100.00;100354.38;7388360;19;20045;-58
2022/10/06 02:02:45;;;;;;;0.30;0.28;;;;;;;14.47;100.00;100366.41;7387257;19;20109;-58
2022/10/06 02:05:13;;;;;;;0.55;0.55;;;;;;;15.19;100.00;100359.63;7387662;19;20010;-59
2022/10/06 02:07:43;;;;;;;0.20;0.20;;;;;;;15.03;100.00;100368.63;7390505;19;20025;-58
2022/10/06 02:10:12;;;;;;;0.10;0.10;;;;;;;15.22;100.00;100362.69;7387056;19;20014;-58
2022/10/06 02:12:39;;;;;;;0.68;0.40;;;;;;;15.56;100.00;100370.19;7387781;19;20125;-58
2022/10/06 02:15:11;;;;;;;1.00;0.30;;;;;;;14.82;100.00;100381.13;7384516;19;20019;-58
2022/10/06 02:17:37;;;;;;;4.18;0.90;;;;;;;14.35;100.00;100381.56;7390329;19;20019;-58
2022/10/06 02:20:05;;;;;;;4.28;0.80;;;;;;;14.19;100.00;100382.03;7390716;19;20034;-58
2022/10/06 02:22:31;;;;;;;0.10;0.10;;;;;;;14.65;100.00;100382.97;7395651;19;20010;-58
2022/10/06 02:24:57;;;;;;;0.73;0.52;;;;;;;14.79;100.00;100382.09;7398144;19;20019;-58
2022/10/06 02:27:23;;;;;;;0.10;0.10;;;;;;;15.04;100.00;100387.00;7395450;19;20025;-58
2022/10/06 02:29:49;;;;;;;0.20;0.20;;;;;;;14.53;100.00;100388.91;7394506;19;20023;-58
2022/10/06 02:32:16;;;;;;;0.20;0.20;;;;;;;14.21;100.00;100387.94;7392787;19;20026;-58
2022/10/06 02:34:42;;;;;;;0.10;0.10;;;;;;;14.37;100.00;100385.41;7393434;19;20030;-59
2022/10/06 02:37:11;;;;;;;0.10;0.10;;;;;;;14.24;100.00;100382.13;7395415;19;20365;-58
2022/10/06 02:39:37;;;;;;;2.20;0.30;;;;;;;14.59;100.00;100386.97;7391433;19;20027;-58
2022/10/06 02:42:04;;;;;;;0.30;0.30;;;;;;;14.27;100.00;100389.53;7393554;19;20010;-59
2022/10/06 02:44:30;;;;;;;0.20;0.20;;;;;;;14.42;100.00;100387.50;7393325;19;20070;-58
2022/10/06 02:46:56;;;;;;;1.05;0.25;;;;;;;14.44;100.00;100384.22;7395226;19;20018;-58
2022/10/06 02:49:22;;;;;;;0.65;0.40;;;;;;;14.89;100.00;100386.31;7392795;19;20633;-58
2022/10/06 02:51:50;;;;;;;0.20;0.20;;;;;;;14.63;100.00;100402.31;7392740;19;20011;-58
2022/10/06 02:54:16;;;;;;;0.20;0.20;;;;;;;14.04;100.00;100400.91;7394738;19;20011;-58
2022/10/06 02:56:42;;;;;;;0.10;0.10;;;;;;;13.62;100.00;100402.03;7397425;19;20037;-64
2022/10/06 02:59:08;;;;;;;0.10;0.10;;;;;;;14.81;100.00;100396.41;7394094;19;20018;-64
2022/10/06 03:01:36;;;;;;;0.10;0.10;;;;;;;14.95;100.00;100394.78;7396538;19;20463;-58
2022/10/06 03:04:12;;;;;;;0.38;0.38;;;;;;;14.94;100.00;100391.19;7395531;19;20014;-58
2022/10/06 03:06:40;;;;;;;3.10;1.05;;;;;;;15.09;100.00;100391.13;7396052;19;20010;-59
2022/10/06 03:09:12;;;;;;;0.20;0.20;;;;;;;14.94;100.00;100391.19;7396291;19;20017;-58
2022/10/06 03:11:42;;;;;;;0.50;0.47;;;;;;;14.69;100.00;100377.91;7396696;19;20018;-58
2022/10/06 03:14:12;;;;;;;5.10;0.57;;;;;;;14.64;100.00;100381.41;7401214;19;20006;-59
2022/10/06 03:16:40;;;;;;;0.20;0.20;;;;;;;14.41;100.00;100388.00;7397653;19;20512;-58
2022/10/06 03:19:12;;;;;;;1.75;1.33;;;;;;;14.87;100.00;100388.84;7394212;19;20020;-58
2022/10/06 03:21:41;;;;;;;0.15;0.15;;;;;;;15.16;100.00;100391.44;7396328;19;20021;-58
2022/10/06 03:24:09;;;;;;;2.63;0.68;;;;;;;15.12;100.00;100399.31;7398538;19;20344;-58
2022/10/06 03:26:42;;;;;;;0.63;0.43;;;;;;;14.74;100.00;100396.06;7398218;19;20010;-58
2022/10/06 03:29:09;;;;;;;0.17;0.17;;;;;;;14.75;100.00;100403.97;7396672;19;20017;-58
2022/10/06 03:31:38;;;;;;;12.40;0.73;;;;;;;14.86;100.00;100404.13;7394523;19;20044;-58
2022/10/06 03:34:05;;;;;;;0.10;0.10;;;;;;;15.18;100.00;100399.41;7396625;19;20010;-58
2022/10/06 03:36:32;;;;;;;0.10;0.10;;;;;;;15.55;100.00;100413.56;7396824;19;20513;-58
2022/10/06 03:39:02;;;;;;;0.10;0.10;;;;;;;15.62;100.00;100410.31;7395033;19;20021;-58
2022/10/06 03:41:31;;;;;;;0.10;0.10;;;;;;;15.52;100.00;100417.38;7396934;19;20010;-58
2022/10/06 03:43:59;;;;;;;0.10;0.10;;;;;;;15.10;100.00;100423.50;7395783;19;20010;-58
2022/10/06 03:46:28;;;;;;;0.10;0.10;;;;;;;15.05;100.00;100415.81;7395535;19;20031;-58
2022/10/06 03:48:56;;;;;;;0.10;0.10;;;;;;;14.85;100.00;100416.63;7393570;19;20072;-58
2022/10/06 03:51:29;;;;;;;0.38;0.22;;;;;;;15.15;100.00;100423.59;7391434;19;20018;-58
2022/10/06 03:53:57;;;;;;;3.70;0.60;;;;;;;14.67;100.00;100419.69;7392273;19;20400;-58
2022/10/06 03:56:30;;;;;;;1.08;0.35;;;;;;;14.42;100.00;100423.19;7391089;19;20011;-58
2022/10/06 03:58:58;;;;;;;0.10;0.10;;;;;;;15.18;100.00;100425.41;7389186;19;20113;-58
2022/10/06 04:01:32;;;;;;;2.10;0.88;;;;;;;15.38;100.00;100424.59;7390828;19;20365;-58
2022/10/06 04:04:00;;;;;;;0.20;0.20;;;;;;;15.26;100.00;100422.16;7391053;19;20011;-58
2022/10/06 04:06:28;;;;;;;0.43;0.25;;;;;;;15.19;100.00;100423.38;7391335;19;20113;-58
2022/10/06 04:08:55;;;;;;;3.92;0.50;;;;;;;15.10;100.00;100429.91;7390495;19;20018;-58
2022/10/06 04:11:36;;;;;;;0.30;0.30;;;;;;;14.68;100.00;100432.47;7391100;19;20018;-58
2022/10/06 04:14:09;;;;;;;0.20;0.20;;;;;;;14.63;100.00;100429.56;7395096;19;20085;-58
2022/10/06 04:16:39;;;;;;;1.85;0.65;;;;;;;14.73;100.00;100428.94;7391667;19;20007;-58
2022/10/06 04:19:11;;;;;;;7.93;0.40;;;;;;;13.61;100.00;100431.28;7389623;19;20037;-58
2022/10/06 04:21:42;;;;;;;0.20;0.20;;;;;;;13.94;100.00;100436.69;7389476;19;20037;-58
2022/10/06 04:24:11;;;;;;;13.20;0.88;;;;;;;14.41;100.00;100435.63;7389404;19;20031;-58
2022/10/06 04:26:45;;;;;;;18.63;1.23;;;;;;;12.78;100.00;100440.06;7391737;19;20014;-58
2022/10/06 04:29:13;;;;;;;0.20;0.20;;;;;;;11.88;100.00;100449.66;7390531;19;20053;-58
2022/10/06 04:31:41;;;;;;;0.10;0.10;;;;;;;10.88;100.00;100462.91;7394661;19;20015;-58
2022/10/06 04:34:12;;;;;;;0.30;0.30;;;;;;;13.38;100.00;100459.34;7389834;19;20010;-58
2022/10/06 04:36:41;;;;;;;0.57;0.57;;;;;;;13.02;100.00;100454.78;7391295;19;20010;-58
2022/10/06 04:39:12;;;;;;;0.20;0.20;;;;;;;13.19;100.00;100461.50;7388949;19;20011;-58
2022/10/06 04:41:41;;;;;;;0.20;0.20;;;;;;;13.23;100.00;100467.69;7389281;19;20038;-58
2022/10/06 04:44:12;;;;;;;0.20;0.20;;;;;;;13.11;100.00;100460.34;7390911;19;20035;-58
2022/10/06 04:46:38;;;;;;;0.30;0.30;;;;;;;12.59;100.00;100469.38;7387692;19;20017;-58
2022/10/06 04:49:05;;;;;;;0.10;0.10;;;;;;;12.84;100.00;100457.72;7388511;19;20736;-58
2022/10/06 04:51:33;;;;;;;0.10;0.00;;;;;;;13.41;100.00;100458.38;7387498;19;20029;-58
2022/10/06 04:54:01;;;;;;;7.43;0.47;;;;;;;13.28;100.00;100464.22;7387535;19;20015;-58
2022/10/06 04:56:29;;;;;;;6.55;0.47;;;;;;;13.47;100.00;100462.06;7388308;19;20507;-58
2022/10/06 04:58:57;;;;;;;4.15;0.75;;;;;;;13.53;100.00;100463.72;7386263;19;20437;-58
2022/10/06 05:01:30;;;;;;;8.05;0.55;;;;;;;13.30;100.00;100466.53;7388819;19;20043;-57
2022/10/06 05:03:59;;;;;;;0.20;0.20;;;;;;;13.37;100.00;100466.19;7390034;19;20010;-57
2022/10/06 05:06:39;;;;;;;1.45;0.47;;;;;;;13.17;100.00;100469.59;7389031;19;20015;-58
2022/10/06 05:09:09;;;;;;;0.13;0.13;;;;;;;13.25;100.00;100465.22;7387832;19;20011;-57
2022/10/06 05:11:37;;;;;;;8.32;0.50;;;;;;;13.28;100.00;100475.44;7389735;19;20011;-57
2022/10/06 05:14:05;;;;;;;0.10;0.10;;;;;;;13.27;100.00;100473.91;7392621;19;20014;-57
2022/10/06 05:16:36;;;;;;;6.32;0.65;;;;;;;13.12;100.00;100475.09;7389150;19;20011;-57
2022/10/06 05:19:03;;;;;;;0.15;0.15;;;;;;;13.60;100.00;100480.09;7386777;19;20015;-57
2022/10/06 05:21:31;;;;;;;0.10;0.10;;;;;;;13.36;100.00;100487.78;7387594;19;20022;-57
2022/10/06 05:23:59;;;;;;;0.10;0.10;;;;;;;13.68;100.00;100498.09;7388435;19;20353;-57
2022/10/06 05:26:28;;;;;;;0.50;0.50;;;;;;;13.76;100.00;100492.84;7388455;19;20021;-57
2022/10/06 05:28:56;;;;;;;0.10;0.10;;;;;;;13.77;100.00;100496.44;7387826;19;20359;-57
2022/10/06 05:31:27;;;;;;;1.40;1.30;;;;;;;13.80;100.00;100493.44;7388062;19;20018;-57
2022/10/06 05:33:56;;;;;;;1.65;0.40;;;;;;;13.85;100.00;100501.16;7387263;19;20014;-57
2022/10/06 05:36:28;;;;;;;0.20;0.20;;;;;;;13.72;100.00;100502.69;7386795;19;20359;-57
2022/10/06 05:38:56;;;;;;;0.50;0.28;;;;;;;14.07;100.00;100495.97;7386638;19;20479;-57
2022/10/06 05:41:27;;;;;;;0.65;0.60;;;;;;;14.01;100.00;100499.91;7388022;19;20011;-57
2022/10/06 05:43:55;;;;;;;0.30;0.30;;;;;;;13.99;100.00;100499.63;7391595;19;20010;-57
2022/10/06 05:46:24;;;;;;;0.32;0.32;;;;;;;14.01;100.00;100502.72;7387385;19;20031;-57
2022/10/06 05:48:57;;;;;;;0.10;0.10;;;;;;;14.15;100.00;100501.94;7387389;19;20026;-57
2022/10/06 05:51:28;;;;;;;1.55;0.68;;;;;;;14.38;100.00;100498.25;7387365;19;20231;-57
2022/10/06 05:53:55;;;;;;;0.10;0.10;;;;;;;14.27;100.00;100498.06;7392035;19;20477;-57
2022/10/06 05:56:27;;;;;;;3.25;0.47;;;;;;;13.98;100.00;100503.69;7394947;19;20021;-57
2022/10/06 05:58:55;;;;;;;0.43;0.43;;;;;;;14.22;100.00;100507.16;7393084;19;20014;-57
2022/10/06 06:01:25;;;;;;;0.20;0.20;;;;;;;14.22;100.00;100502.31;7395610;19;20467;-57
2022/10/06 06:04:03;;;;;;;3.05;1.10;;;;;;;14.09;100.00;100501.84;7394582;19;20658;-57
2022/10/06 06:06:42;;;;;;;3.50;1.60;;;;;;;14.17;100.00;100510.63;7396139;19;20007;-56
2022/10/06 06:09:12;;;;;;;1.95;0.85;;;;;;;14.18;100.00;100515.75;7395072;19;20010;-57
2022/10/06 06:11:46;;;;;;;1.55;0.82;;;;;;;14.25;100.00;100523.00;7394638;19;20491;-57
2022/10/06 06:14:18;;;;;;;0.30;0.30;;;;;;;14.34;100.00;100520.09;7398435;19;20007;-57
2022/10/06 06:16:46;;;;;;;3.22;0.70;;;;;;;14.35;100.00;100521.66;7394166;19;20010;-57
2022/10/06 06:19:13;;;;;;;3.95;0.82;;;;;;;14.37;100.00;100514.31;7394114;19;20011;-57
2022/10/06 06:21:41;;;;;;;0.50;0.32;;;;;;;14.36;100.00;100517.56;7395129;19;20048;-57
2022/10/06 06:24:08;;;;;;;0.95;0.40;;;;;;;14.30;100.00;100513.91;7394214;19;20019;-57
2022/10/06 06:26:36;;;;;;;0.57;0.22;;;;;;;14.34;100.00;100509.66;7396033;19;20510;-57
2022/10/06 06:29:05;;;;;;;0.70;0.70;;;;;;;14.32;100.00;100511.41;7393398;19;20014;-57
2022/10/06 06:31:37;;;;;;;1.45;0.47;;;;;;;14.02;100.00;100509.84;7393563;19;20034;-57
2022/10/06 06:34:05;;;;;;;0.45;0.28;;;;;;;14.55;100.00;100507.69;7393907;19;20015;-57
2022/10/06 06:36:34;;;;;;;5.97;0.52;;;;;;;14.61;100.00;100516.19;7393996;19;20019;-57
2022/10/06 06:39:07;;;;;;;0.60;0.60;;;;;;;14.67;100.00;100523.41;7391770;19;20345;-57
2022/10/06 06:41:37;;;;;;;0.95;0.40;;;;;;;14.73;100.00;100515.84;7393483;19;20017;-57
2022/10/06 06:44:11;;;;;;;0.63;0.40;;;;;;;14.75;100.00;100527.34;7397754;19;20010;-56
2022/10/06 06:46:43;;;;;;;2.85;0.28;;;;;;;14.84;100.00;100523.66;7393750;19;20038;-57
2022/10/06 06:49:15;;;;;;;0.80;0.47;;;;;;;14.83;100.00;100531.31;7392274;19;20022;-56
2022/10/06 06:51:48;;;;;;;0.10;0.10;;;;;;;14.81;100.00;100533.06;7393546;19;20031;-57
2022/10/06 06:54:17;;;;;;;;;;;;;;;14.64;100.00;100538.41;7396846;19;20042;-57
2022/10/06 06:56:47;;;;;;;0.30;0.30;;;;;;;14.58;100.00;100537.53;7394783;19;19923;-57
2022/10/06 06:59:16;;;;;;;0.17;0.17;;;;;;;14.57;100.00;100538.81;7390712;19;20015;-57
2022/10/06 07:01:46;;;;;;;0.30;0.30;;;;;;;14.71;100.00;100540.81;7392795;19;20014;-57
2022/10/06 07:04:15;;;;;;;0.25;0.17;;;;;;;14.74;100.00;100544.66;7391536;19;20011;-57
2022/10/06 07:06:55;;;;;;;0.32;0.32;;;;;;;14.63;100.00;100548.09;7391961;19;20100;-57
2022/10/06 07:09:24;;;;;;;0.68;0.68;;;;;;;14.87;100.00;100550.72;7391616;19;20416;-57
2022/10/06 07:11:51;;;;;;;0.20;0.20;;;;;;;14.81;100.00;100547.81;7391843;19;20466;-57
2022/10/06 07:14:22;;;;;;;0.25;0.20;;;;;;;14.87;100.00;100550.72;7392388;19;20451;-57
2022/10/06 07:25:23;;;;;;;0.43;0.43;;;;;;;15.04;100.00;100555.31;7394481;19;20380;-57
2022/10/06 07:27:51;;;;;;;3.10;0.38;;;;;;;15.18;100.00;100570.56;7395124;19;20011;-57
2022/10/06 07:30:27;;;;;;;0.45;0.45;;;;;;;15.44;100.00;100559.44;7391251;19;20011;-57
2022/10/06 07:33:08;;;;;;;3.83;0.52;;;;;;;15.52;100.00;100561.31;7391517;19;20064;-57
2022/10/06 07:35:37;;;;;;;7.63;0.65;;;;;;;15.53;100.00;100564.88;7391923;19;20021;-57
2022/10/06 07:38:07;;;;;;;1.15;0.47;;;;;;;15.64;100.00;100570.63;7395638;19;20368;-57
2022/10/06 07:40:38;;;;;;;0.77;0.20;;;;;;;15.72;100.00;100574.56;7391138;19;20485;-57
2022/10/06 07:43:07;;;;;;;0.43;0.43;;;;;;;15.78;100.00;100575.38;7394337;19;20015;-57
2022/10/06 07:45:45;;;;;;;0.10;0.10;;;;;;;15.99;100.00;100581.72;7389355;19;20463;-57
2022/10/06 07:48:19;;;;;;;0.30;0.10;;;;;;;16.00;100.00;100577.66;7394902;19;20019;-57
2022/10/06 07:50:51;;;;;;;0.55;0.35;;;;;;;16.15;100.00;100583.94;7391146;19;20384;-57
2022/10/06 07:53:26;;;;;;;;;;;;;;;16.19;100.00;100578.88;7390696;19;20019;-57
2022/10/06 07:56:03;;;;;;;1.88;0.30;;;;;;;16.15;100.00;100587.53;7390053;19;20328;-57
2022/10/06 07:58:33;;;;;;;0.10;0.10;;;;;;;16.78;100.00;100587.56;7388910;19;20010;-57
2022/10/06 08:01:07;;;;;;;1.90;0.65;;;;;;;16.59;100.00;100589.97;7390134;19;20074;-57
2022/10/06 08:03:36;;;;;;;1.23;0.43;;;;;;;16.82;100.00;100585.31;7391352;19;20011;-57
2022/10/06 08:06:03;;;;;;;0.63;0.20;;;;;;;16.57;100.00;100589.72;7392265;19;20018;-57
2022/10/06 08:08:31;;;;;;;1.15;0.22;;;;;;;16.79;100.00;100586.28;7395722;19;20368;-57
2022/10/06 08:10:59;;;;;;;0.57;0.57;;;;;;;17.09;100.00;100591.09;7391502;19;20011;-57
2022/10/06 08:13:25;;;;;;;0.30;0.25;;;;;;;17.22;100.00;100594.25;7394514;19;20010;-57
2022/10/06 08:15:55;;;;;;;1.75;0.73;;;;;;;17.34;100.00;100593.06;7391951;19;20352;-57
2022/10/06 08:18:23;;;;;;;0.73;0.73;;;;;;;17.56;100.00;100598.03;7396170;19;20011;-57
2022/10/06 08:20:49;;;;;;;0.47;0.28;;;;;;;17.54;100.00;100597.78;7392596;19;20449;-57
2022/10/06 08:23:16;;;;;;;0.13;0.10;;;;;;;17.30;100.00;100600.19;7390105;19;20014;-57
2022/10/06 08:25:49;;;;;;;5.80;0.57;;;;;;;17.47;100.00;100606.69;7393333;19;20039;-57
2022/10/06 08:28:15;;;;;;;3.60;0.93;;;;;;;17.72;100.00;100600.13;7394896;19;20014;-57
2022/10/06 08:30:41;;;;;;;3.40;0.85;;;;;;;17.85;100.00;100597.63;7390137;19;20007;-57
2022/10/06 08:33:07;;;;;;;0.52;0.52;;;;;;;17.77;100.00;100595.81;7389539;19;20044;-57
2022/10/06 08:35:34;;;;;;;6.85;1.58;;;;;;;17.95;100.00;100603.81;7391631;19;20014;-57
2022/10/06 08:38:01;;;;;;;17.00;1.42;;;;;;;17.98;100.00;100594.31;7393790;19;20014;-57
2022/10/06 08:40:27;;;;;;;0.30;0.28;;;;;;;17.87;100.00;100603.50;7391535;19;20003;-57
2022/10/06 08:43:00;;;;;;;0.13;0.08;;;;;;;17.78;100.00;100598.09;7393537;19;20486;-57
2022/10/06 08:45:34;;;;;;;2.28;0.95;;;;;;;18.02;100.00;100589.97;7389002;19;20015;-57
2022/10/06 08:48:06;;;;;;;1.23;0.43;;;;;;;18.17;100.00;100586.91;7395317;19;20018;-57
2022/10/06 08:50:42;;;;;;;1.63;0.45;;;;;;;18.19;100.00;100578.75;7391034;19;20015;-57
2022/10/06 08:53:45;;;;;;;0.80;0.80;;;;;;;18.19;100.00;100581.56;7389912;19;20010;-56
2022/10/06 08:56:18;;;;;;;7.53;0.73;;;;;;;18.48;100.00;100588.78;7390233;19;20018;-56
2022/10/06 08:58:56;;;;;;;4.15;0.52;;;;;;;18.44;100.00;100586.22;7389764;19;20018;-56
2022/10/06 09:01:25;;;;;;;6.10;0.55;;;;;;;18.45;100.00;100587.00;7390257;19;20464;-56
2022/10/06 09:04:00;;;;;;;0.43;0.20;;;;;;;18.94;100.00;100589.00;7389344;19;20014;-56
2022/10/06 09:06:50;;;;;;;8.07;0.82;;;;;;;19.20;100.00;100592.28;7390979;19;20316;-56
2022/10/06 09:09:19;;;;;;;3.40;0.75;;;;;;;19.03;100.00;100585.91;7389612;19;20003;-56
2022/10/06 09:11:53;;;;;;;3.47;0.30;;;;;;;19.40;100.00;100585.59;7389885;19;20011;-56
2022/10/06 09:14:23;;;;;;;1.25;0.15;;;;;;;18.42;100.00;100583.13;7387945;19;20393;-56
2022/10/06 09:16:59;;;;;;;1.92;0.50;;;;;;;19.21;100.00;100587.41;7389198;19;20014;-56
2022/10/06 09:19:50;;;;;;;0.60;0.22;;;;;;;20.12;100.00;100580.31;7388560;19;20034;-56
2022/10/06 09:22:19;;;;;;;1.50;0.55;;;;;;;20.52;100.00;100587.28;7388270;19;20359;-56
2022/10/06 09:24:50;;;;;;;5.72;0.30;;;;;;;21.03;100.00;100589.13;7391596;19;20344;-56
2022/10/06 09:27:23;;;;;;;3.63;1.30;;;;;;;21.16;100.00;100599.81;7391850;19;20507;-57
2022/10/06 09:29:50;;;;;;;0.98;0.38;;;;;;;21.03;100.00;100597.63;7388543;19;20224;-57
2022/10/06 09:32:21;;;;;;;0.65;0.22;;;;;;;20.96;100.00;100595.34;7386425;19;20520;-56
2022/10/06 09:34:58;;;;;;;0.15;0.15;;;;;;;20.60;100.00;100593.09;7387405;19;20114;-56
2022/10/06 09:37:25;;;;;;;8.10;1.20;;;;;;;20.78;100.00;100601.72;7392285;19;20007;-56
2022/10/06 09:39:52;;;;;;;0.10;0.10;;;;;;;21.00;100.00;100587.34;7387364;19;20010;-56
2022/10/06 09:42:21;;;;;;;6.80;1.17;;;;;;;21.29;100.00;100602.03;7389660;19;20321;-56
2022/10/06 09:45:00;;;;;;;4.30;0.82;;;;;;;21.45;100.00;100593.31;7386556;19;20015;-56
2022/10/06 09:47:35;;;;;;;0.57;0.45;;;;;;;21.74;100.00;100608.69;7392585;19;20094;-56
2022/10/06 09:50:10;;;;;;;0.20;0.20;;;;;;;21.44;100.00;100602.34;7390025;19;20014;-56
2022/10/06 09:53:02;;;;;;;0.90;0.17;;;;;;;22.45;100.00;100598.41;7389688;19;20027;-55
2022/10/06 09:55:42;;;;;;;5.53;0.85;;;;;;;22.51;100.00;100604.75;7388702;19;20399;-56
2022/10/06 09:58:24;;;;;;;0.13;0.13;;;;;;;22.49;100.00;100603.75;7392406;19;20007;-56
2022/10/06 10:01:02;;;;;;;0.70;0.60;;;;;;;22.86;100.00;100611.44;7389754;19;20010;-55
2022/10/06 10:03:50;;;;;;;5.13;0.57;;;;;;;22.24;100.00;100611.59;7389068;19;20074;-56
2022/10/06 10:06:29;;;;;;;0.32;0.10;;;;;;;22.72;100.00;100615.56;7389307;19;20019;-56
2022/10/06 10:09:23;;;;;;;0.45;0.25;;;;;;;21.43;100.00;100606.47;7389523;19;20473;-56
2022/10/06 10:15:02;;;;;;;0.47;0.47;;;;;;;23.17;100.00;100599.25;7388915;19;20021;-56
2022/10/06 10:17:31;;;;;;;6.03;0.60;;;;;;;23.11;100.00;100612.78;7390107;19;20070;-56
2022/10/06 10:20:01;;;;;;;1.92;0.55;;;;;;;23.38;100.00;100620.06;7386663;19;20010;-56
2022/10/06 10:22:39;;;;;;;5.47;0.65;;;;;;;23.60;100.00;100619.63;7388780;19;20017;-56
2022/10/06 10:25:27;;;;;;;2.72;0.73;;;;;;;23.41;100.00;100607.59;7391470;19;20018;-55
2022/10/06 10:28:22;;;;;;;1.75;0.30;;;;;;;22.98;100.00;100613.53;7391666;19;20031;-55
2022/10/06 10:30:54;;;;;;;0.10;0.10;;;;;;;23.59;100.00;100605.94;7386463;19;20032;-55
2022/10/06 10:33:29;;;;;;;0.55;0.35;;;;;;;24.07;100.00;100608.28;7388729;19;20019;-55
2022/10/06 10:35:57;;;;;;;1.38;0.17;;;;;;;24.18;100.00;100610.09;7387660;19;20023;-56
2022/10/06 10:38:25;;;;;;;1.02;0.45;;;;;;;24.25;100.00;100610.22;7391772;19;20468;-55
2022/10/06 10:40:54;;;;;;;0.30;0.10;;;;;;;24.13;100.00;100616.72;7390398;19;20007;-55
2022/10/06 10:43:32;;;;;;;4.20;1.38;;;;;;;24.75;100.00;100609.75;7397254;19;20352;-55
2022/10/06 10:46:12;;;;;;;0.95;0.40;;;;;;;24.85;100.00;100607.19;7394342;19;20010;-55
2022/10/06 10:49:25;;;;;;;0.47;0.20;;;;;;;24.87;100.00;100603.78;7394512;19;20370;-55
2022/10/06 10:52:15;;;;;;;0.03;0.00;;;;;;;24.87;100.00;100607.41;7392967;19;20010;-56
2022/10/06 10:54:50;;;;;;;3.45;0.20;;;;;;;25.02;100.00;100616.06;7393636;19;20003;-56
2022/10/06 10:57:20;;;;;;;4.68;0.15;;;;;;;25.00;99.88;100610.16;7396525;19;20006;-56
2022/10/06 10:59:58;;;;;;;0.15;0.15;;;;;;;25.27;98.73;100600.13;7390908;19;20014;-56
2022/10/06 11:02:25;;;;;;;3.17;0.30;;;;;;;24.60;100.00;100608.84;7392339;19;20010;-57
2022/10/06 11:05:00;;;;;;;0.75;0.40;;;;;;;24.77;100.00;100604.31;7393690;19;20086;-56
2022/10/06 11:07:38;;;;;;;0.90;0.22;;;;;;;24.42;100.00;100595.56;7396882;19;20378;-56
2022/10/06 11:10:24;;;;;;;0.10;0.00;;;;;;;25.13;100.00;100590.13;7394448;19;20014;-56
2022/10/06 11:13:02;;;;;;;0.75;0.63;;;;;;;25.38;99.77;100596.94;7396026;19;20590;-57
2022/10/06 11:15:35;;;;;;;0.40;0.40;;;;;;;25.13;99.92;100597.91;7394812;19;20010;-57
2022/10/06 11:18:40;;;;;;;5.35;0.30;;;;;;;24.54;100.00;100596.81;7396770;19;20015;-57
2022/10/06 11:21:16;;;;;;;4.65;0.82;;;;;;;24.35;100.00;100590.53;7394602;19;20014;-58
2022/10/06 11:24:04;;;;;;;0.43;0.10;;;;;;;24.38;100.00;100598.00;7393704;19;20038;-57
2022/10/06 11:26:57;;;;;;;0.43;0.30;;;;;;;24.83;100.00;100601.28;7396143;19;20006;-58
2022/10/06 11:29:42;;;;;;;6.57;0.43;;;;;;;24.87;98.35;100587.47;7392666;19;20003;-58
2022/10/06 11:32:14;;;;;;;0.32;0.10;;;;;;;24.69;99.05;100585.56;7394143;19;20031;-58
2022/10/06 11:34:43;;;;;;;1.38;0.35;;;;;;;24.16;100.00;100601.34;7393561;19;20030;-59
2022/10/06 11:37:27;;;;;;;0.20;0.20;;;;;;;23.92;100.00;100593.84;7393340;19;20014;-57
2022/10/06 11:40:21;;;;;;;0.63;0.15;;;;;;;24.58;100.00;100574.47;7391443;19;20743;-57
2022/10/06 11:42:57;;;;;;;0.30;0.13;;;;;;;24.50;100.00;100585.00;7395031;19;20015;-57
2022/10/06 11:45:39;;;;;;;1.98;0.22;;;;;;;24.08;100.00;100576.41;7393522;19;20014;-57
2022/10/06 11:48:29;;;;;;;3.50;0.25;;;;;;;24.42;100.00;100572.78;7397205;19;20017;-58